Time;durP1;ratioP1;P1;durP2;ratioP2;P2;SDS_P1;SDS_P2;PMS_P1;PMS_P2;Temp;Humidity;BMP_temperature;BMP_pressure;BME280_temperature;BME280_humidity;BME280_pressure;Samples;Min_cycle;Max_cycle;Signal;HPM_P1;HPM_P2
2022/11/29 00:01:03;;;;;;;3.80;2.90;;;5.30;99.90;;;;;;5044488;28;20761;-78
2022/11/29 00:03:30;;;;;;;3.45;2.75;;;5.40;99.90;;;;;;5039802;28;20436;-77
2022/11/29 00:06:05;;;;;;;3.80;2.50;;;5.30;99.90;;;;;;5044815;28;20429;-77
2022/11/29 00:08:33;;;;;;;5.20;1.97;;;5.40;99.90;;;;;;5042335;28;20435;-77
2022/11/29 00:11:05;;;;;;;3.20;2.08;;;5.40;99.90;;;;;;5049222;28;20788;-77
2022/11/29 00:13:32;;;;;;;2.15;2.03;;;5.40;99.90;;;;;;5041461;28;20475;-77
2022/11/29 00:16:10;;;;;;;4.88;1.67;;;5.40;99.90;;;;;;5044860;28;20435;-77
2022/11/29 00:18:37;;;;;;;2.43;2.20;;;5.40;99.90;;;;;;5039269;28;20482;-77
2022/11/29 00:21:07;;;;;;;6.60;2.93;;;5.40;99.90;;;;;;5055815;28;20524;-77
2022/11/29 00:23:35;;;;;;;3.50;2.22;;;5.40;99.90;;;;;;5041616;28;20445;-77
2022/11/29 00:26:04;;;;;;;2.60;2.40;;;5.40;99.90;;;;;;5041375;28;20437;-77
2022/11/29 00:28:30;;;;;;;3.83;2.80;;;5.40;99.90;;;;;;5048537;28;20501;-77
2022/11/29 00:30:57;;;;;;;3.38;2.17;;;5.40;99.90;;;;;;5038070;28;20429;-77
2022/11/29 00:33:25;;;;;;;5.07;2.20;;;5.50;99.90;;;;;;5036526;28;20524;-77
2022/11/29 00:35:51;;;;;;;2.13;1.48;;;5.50;99.90;;;;;;5059274;28;20423;-77
2022/11/29 00:38:18;;;;;;;3.65;1.65;;;5.50;99.90;;;;;;5043447;28;20583;-77
2022/11/29 00:40:50;;;;;;;2.55;2.00;;;5.50;99.90;;;;;;5050554;28;20437;-77
2022/11/29 00:43:17;;;;;;;2.13;1.80;;;5.50;99.90;;;;;;5047683;28;20437;-78
2022/11/29 00:45:44;;;;;;;1.83;1.73;;;5.50;99.90;;;;;;5046314;28;20465;-78
2022/11/29 00:48:10;;;;;;;2.40;1.60;;;5.50;99.90;;;;;;5048433;28;20440;-78
2022/11/29 00:50:37;;;;;;;1.65;1.52;;;5.50;99.90;;;;;;5048068;28;20440;-78
2022/11/29 00:53:04;;;;;;;2.08;1.52;;;5.50;99.90;;;;;;5041927;28;20508;-76
2022/11/29 00:55:31;;;;;;;4.30;1.87;;;5.40;99.90;;;;;;5043030;28;20478;-76
2022/11/29 00:57:57;;;;;;;2.85;2.63;;;5.40;99.90;;;;;;5041862;28;20501;-76
2022/11/29 01:00:24;;;;;;;4.10;1.95;;;5.40;99.90;;;;;;5041893;28;20490;-76
2022/11/29 01:02:51;;;;;;;2.30;2.10;;;5.40;99.90;;;;;;5047387;28;20440;-77
2022/11/29 01:05:18;;;;;;;1.73;1.63;;;5.30;99.90;;;;;;5041426;28;20429;-77
2022/11/29 01:07:45;;;;;;;3.00;1.98;;;5.40;99.90;;;;;;5051127;28;20459;-76
2022/11/29 01:10:14;;;;;;;2.67;1.50;;;5.40;99.90;;;;;;5034582;28;20878;-77
2022/11/29 01:12:40;;;;;;;4.07;2.50;;;5.40;99.90;;;;;;5043779;28;20433;-76
2022/11/29 01:15:08;;;;;;;4.05;2.47;;;5.40;99.90;;;;;;5045586;28;21196;-76
2022/11/29 01:17:37;;;;;;;1.75;1.65;;;5.40;99.90;;;;;;5035845;28;20441;-76
2022/11/29 01:20:06;;;;;;;2.65;1.65;;;5.40;99.90;;;;;;5048435;28;20468;-76
2022/11/29 01:22:33;;;;;;;3.05;2.75;;;5.40;99.90;;;;;;5040051;28;20523;-76
2022/11/29 01:25:05;;;;;;;1.53;1.50;;;5.40;99.90;;;;;;5043457;28;20426;-76
2022/11/29 01:27:33;;;;;;;3.35;2.42;;;5.40;99.90;;;;;;5052829;28;20506;-76
2022/11/29 01:29:59;;;;;;;3.42;2.70;;;5.40;99.90;;;;;;5048824;28;20583;-76
2022/11/29 01:32:26;;;;;;;2.35;1.63;;;5.40;99.90;;;;;;5052653;28;20443;-76
2022/11/29 01:34:53;;;;;;;2.73;2.10;;;5.40;99.90;;;;;;5039405;28;20433;-77
2022/11/29 01:37:20;;;;;;;2.63;2.22;;;5.40;99.90;;;;;;5060193;28;20433;-76
2022/11/29 01:39:46;;;;;;;3.33;2.47;;;5.40;99.90;;;;;;5044775;28;20425;-77
2022/11/29 01:42:14;;;;;;;1.77;1.67;;;5.40;99.90;;;;;;5053373;28;20433;-76
2022/11/29 01:44:43;;;;;;;1.95;1.75;;;5.40;99.90;;;;;;5053546;28;20429;-76
2022/11/29 01:47:11;;;;;;;1.60;1.48;;;5.40;99.90;;;;;;5050117;28;20425;-76
2022/11/29 01:49:44;;;;;;;2.10;1.83;;;5.40;99.90;;;;;;5065597;28;20481;-76
2022/11/29 01:52:25;;;;;;;2.30;2.20;;;5.40;99.90;;;;;;5056794;28;20904;-76
2022/11/29 01:54:57;;;;;;;3.03;1.77;;;5.40;99.90;;;;;;5057424;28;20419;-76
2022/11/29 01:57:24;;;;;;;2.33;2.03;;;5.40;99.90;;;;;;5031019;28;20534;-76
2022/11/29 01:59:57;;;;;;;2.45;1.90;;;5.40;99.90;;;;;;5031277;28;20454;-77
2022/11/29 02:02:34;;;;;;;1.50;1.40;;;5.40;99.90;;;;;;5031607;28;20462;-76
2022/11/29 02:05:03;;;;;;;2.08;1.98;;;5.40;99.90;;;;;;5049384;28;20431;-77
2022/11/29 02:07:32;;;;;;;1.73;1.63;;;5.40;99.90;;;;;;5058916;28;20473;-77
2022/11/29 02:10:00;;;;;;;2.10;1.60;;;5.40;99.90;;;;;;5032882;28;20437;-77
2022/11/29 02:12:45;;;;;;;2.13;1.98;;;5.40;99.90;;;;;;5062442;28;20431;-77
2022/11/29 02:15:26;;;;;;;2.30;1.90;;;5.40;99.90;;;;;;5051044;28;20428;-77
2022/11/29 02:18:14;;;;;;;1.85;1.38;;;5.40;99.90;;;;;;5054233;28;20433;-77
2022/11/29 02:21:11;;;;;;;2.35;2.15;;;5.40;99.90;;;;;;5045850;28;20450;-78
2022/11/29 02:23:50;;;;;;;3.15;2.10;;;5.40;99.90;;;;;;5048002;28;20456;-78
2022/11/29 02:26:26;;;;;;;2.22;2.08;;;5.40;99.90;;;;;;5064821;28;20434;-77
2022/11/29 02:29:14;;;;;;;4.43;1.70;;;5.40;99.90;;;;;;5031047;28;20518;-77
2022/11/29 02:32:24;;;;;;;2.60;2.00;;;5.40;99.90;;;;;;5038258;28;20440;-76
2022/11/29 02:35:20;;;;;;;2.08;1.98;;;5.40;99.90;;;;;;5032450;28;20429;-77
2022/11/29 02:38:28;;;;;;;2.50;2.15;;;5.40;99.90;;;;;;5044726;28;20438;-76
2022/11/29 02:41:14;;;;;;;3.65;2.55;;;5.40;99.90;;;;;;5041249;28;20445;-76
2022/11/29 02:44:06;;;;;;;1.63;1.50;;;5.40;99.90;;;;;;5049083;28;20435;-76
2022/11/29 02:46:57;;;;;;;1.67;1.58;;;5.40;99.90;;;;;;5039557;28;20427;-76
2022/11/29 02:49:42;;;;;;;2.55;1.83;;;5.40;99.90;;;;;;5040375;28;20464;-76
2022/11/29 02:52:46;;;;;;;1.83;1.73;;;5.40;99.90;;;;;;5058787;28;20438;-76
2022/11/29 02:55:32;;;;;;;2.40;1.95;;;5.40;99.90;;;;;;5024439;28;20465;-76
2022/11/29 02:58:28;;;;;;;2.03;1.90;;;5.40;99.90;;;;;;5043764;28;20432;-76
2022/11/29 03:01:17;;;;;;;2.45;1.92;;;5.40;99.90;;;;;;5040222;28;20431;-76
2022/11/29 03:03:54;;;;;;;1.80;1.70;;;5.40;99.90;;;;;;5036116;28;20425;-76
2022/11/29 03:06:38;;;;;;;1.60;1.52;;;5.40;99.90;;;;;;5030607;28;20425;-76
2022/11/29 03:09:07;;;;;;;2.10;1.83;;;5.40;99.90;;;;;;5041606;28;20432;-76
2022/11/29 03:11:54;;;;;;;2.42;2.10;;;5.40;99.90;;;;;;5053050;28;20424;-76
2022/11/29 03:14:25;;;;;;;2.33;1.83;;;5.40;99.90;;;;;;5042184;28;20508;-77
2022/11/29 03:17:10;;;;;;;2.35;2.05;;;5.40;99.90;;;;;;5046317;28;20436;-76
2022/11/29 03:19:55;;;;;;;2.65;1.95;;;5.40;99.90;;;;;;5042303;28;20427;-77
2022/11/29 03:22:39;;;;;;;1.90;1.52;;;5.40;99.90;;;;;;5049957;28;20938;-76
2022/11/29 03:25:28;;;;;;;4.05;2.90;;;5.40;99.90;;;;;;5053899;28;20472;-77
2022/11/29 03:28:08;;;;;;;5.18;3.63;;;5.30;99.90;;;;;;5033794;28;20430;-76
2022/11/29 03:30:38;;;;;;;3.65;2.30;;;5.30;99.90;;;;;;5042985;28;20508;-76
2022/11/29 03:33:29;;;;;;;3.42;2.28;;;5.30;99.90;;;;;;5053936;28;20433;-76
2022/11/29 03:36:03;;;;;;;5.72;2.53;;;5.30;99.90;;;;;;5051882;28;20474;-76
2022/11/29 03:38:45;;;;;;;3.23;2.57;;;5.30;99.90;;;;;;5041325;28;20844;-76
2022/11/29 03:41:40;;;;;;;3.28;2.35;;;5.30;99.90;;;;;;5053061;28;20439;-76
2022/11/29 03:44:21;;;;;;;1.98;1.77;;;5.30;99.90;;;;;;5049149;28;20825;-76
2022/11/29 03:46:57;;;;;;;1.33;1.23;;;5.30;99.90;;;;;;5053661;28;20435;-76
2022/11/29 03:49:39;;;;;;;2.78;1.75;;;5.30;99.90;;;;;;5051171;28;20478;-76
2022/11/29 03:52:21;;;;;;;1.73;1.63;;;5.30;99.90;;;;;;5057796;28;20441;-76
2022/11/29 03:55:07;;;;;;;4.63;1.95;;;5.30;99.90;;;;;;5050710;28;20512;-75
2022/11/29 03:58:01;;;;;;;1.98;1.88;;;5.30;99.90;;;;;;5053584;28;20512;-76
2022/11/29 04:00:48;;;;;;;2.35;1.70;;;5.30;99.90;;;;;;5051749;28;20440;-75
2022/11/29 04:03:34;;;;;;;4.40;2.30;;;5.30;99.90;;;;;;5049674;28;20540;-75
2022/11/29 04:06:17;;;;;;;2.83;2.30;;;5.30;99.90;;;;;;5053162;28;20815;-76
2022/11/29 04:08:55;;;;;;;2.38;1.98;;;5.30;99.90;;;;;;5053630;28;20905;-75
2022/11/29 04:11:53;;;;;;;3.00;1.88;;;5.40;99.90;;;;;;5032403;28;20442;-76
2022/11/29 04:14:39;;;;;;;2.25;2.15;;;5.40;99.90;;;;;;5048341;28;20438;-75
2022/11/29 04:17:47;;;;;;;3.15;2.33;;;5.40;99.90;;;;;;5032574;28;20435;-75
2022/11/29 04:20:33;;;;;;;3.03;2.43;;;5.40;99.90;;;;;;5048922;28;21425;-75
2022/11/29 04:23:27;;;;;;;3.42;1.85;;;5.40;99.90;;;;;;5051997;28;20977;-75
2022/11/29 04:26:17;;;;;;;1.90;1.75;;;5.40;99.90;;;;;;5067574;28;20439;-75
2022/11/29 04:29:05;;;;;;;2.97;2.63;;;5.40;99.90;;;;;;5050966;28;20431;-76
2022/11/29 04:31:31;;;;;;;2.30;1.75;;;5.40;99.90;;;;;;5032352;28;20437;-75
2022/11/29 04:34:21;;;;;;;3.17;1.88;;;5.40;99.90;;;;;;5031967;28;20423;-75
2022/11/29 04:37:12;;;;;;;2.58;2.38;;;5.40;99.90;;;;;;5020587;28;20966;-75
2022/11/29 04:40:11;;;;;;;3.22;2.25;;;5.40;99.90;;;;;;5031499;28;20466;-75
2022/11/29 04:42:53;;;;;;;4.30;2.72;;;5.40;99.90;;;;;;5043627;28;20435;-75
2022/11/29 04:45:34;;;;;;;3.25;2.35;;;5.40;99.90;;;;;;5045304;28;20430;-75
2022/11/29 04:48:13;;;;;;;2.37;1.93;;;5.40;99.90;;;;;;5032858;28;20437;-75
2022/11/29 04:51:00;;;;;;;4.47;2.25;;;5.40;99.90;;;;;;5032196;28;20427;-75
2022/11/29 04:54:02;;;;;;;5.03;2.45;;;5.40;99.90;;;;;;5048802;28;20447;-75
2022/11/29 04:56:45;;;;;;;3.25;2.30;;;5.40;99.90;;;;;;5054322;28;20431;-75
2022/11/29 04:59:45;;;;;;;4.93;2.33;;;5.40;99.90;;;;;;5046631;28;20496;-75
2022/11/29 05:02:38;;;;;;;1.90;1.83;;;5.40;99.90;;;;;;5053178;28;20630;-75
2022/11/29 05:05:46;;;;;;;2.85;1.85;;;5.40;99.90;;;;;;5049573;28;20937;-75
2022/11/29 05:08:46;;;;;;;2.80;1.80;;;5.40;99.90;;;;;;5041382;28;21015;-75
2022/11/29 05:11:46;;;;;;;3.42;2.05;;;5.40;99.90;;;;;;5038112;28;20444;-75
2022/11/29 05:14:33;;;;;;;3.95;2.10;;;5.40;99.90;;;;;;5041992;28;20433;-75
2022/11/29 05:17:23;;;;;;;1.77;1.35;;;5.30;99.90;;;;;;5052087;28;20429;-75
2022/11/29 05:20:02;;;;;;;1.88;1.75;;;5.30;99.90;;;;;;5031929;28;21056;-75
2022/11/29 05:22:48;;;;;;;2.70;2.10;;;5.30;99.90;;;;;;5055183;28;20478;-75
2022/11/29 05:25:38;;;;;;;1.80;1.70;;;5.30;99.90;;;;;;5051887;28;20417;-75
2022/11/29 05:28:35;;;;;;;2.83;1.83;;;5.40;99.90;;;;;;5047221;28;20512;-75
2022/11/29 05:31:39;;;;;;;2.47;2.28;;;5.40;99.90;;;;;;5042835;28;20827;-75
2022/11/29 05:34:24;;;;;;;2.60;1.67;;;5.40;99.90;;;;;;5049361;28;20433;-75
2022/11/29 05:37:10;;;;;;;3.30;2.08;;;5.50;99.90;;;;;;5040919;28;20445;-75
2022/11/29 05:39:59;;;;;;;2.75;2.53;;;5.50;99.90;;;;;;5052913;28;20495;-75
2022/11/29 05:42:37;;;;;;;2.72;2.50;;;5.50;99.90;;;;;;5034614;28;20520;-75
2022/11/29 05:45:47;;;;;;;2.35;2.00;;;5.50;99.90;;;;;;5045676;28;20429;-75
2022/11/29 05:48:26;;;;;;;2.13;1.43;;;5.50;99.90;;;;;;5039064;28;20429;-75
2022/11/29 05:51:08;;;;;;;2.10;1.60;;;5.50;99.90;;;;;;5043769;28;20436;-75
2022/11/29 05:53:58;;;;;;;2.57;1.73;;;5.60;99.90;;;;;;5042633;28;20440;-75
2022/11/29 05:56:46;;;;;;;5.93;2.13;;;5.60;99.90;;;;;;4986988;28;20458;-75
2022/11/29 05:59:19;;;;;;;3.20;2.90;;;5.50;99.90;;;;;;5044447;28;20446;-75
2022/11/29 06:02:06;;;;;;;2.67;2.30;;;5.50;99.90;;;;;;5043451;28;20425;-75
2022/11/29 06:05:02;;;;;;;2.35;2.15;;;5.50;99.90;;;;;;5035461;28;20927;-75
2022/11/29 06:07:50;;;;;;;2.60;2.03;;;5.40;99.90;;;;;;5023868;28;20435;-75
2022/11/29 06:10:19;;;;;;;3.03;2.45;;;5.40;99.90;;;;;;5043025;28;20451;-75
2022/11/29 06:13:26;;;;;;;2.42;2.28;;;5.40;99.90;;;;;;5044785;28;20427;-75
2022/11/29 06:16:16;;;;;;;2.47;2.28;;;5.40;99.90;;;;;;5047376;28;20444;-75
2022/11/29 06:18:52;;;;;;;4.03;2.40;;;5.40;99.90;;;;;;5038095;28;20427;-75
2022/11/29 06:21:36;;;;;;;1.73;1.63;;;5.40;99.90;;;;;;5044530;28;20430;-75
2022/11/29 06:24:23;;;;;;;3.65;2.80;;;5.50;99.90;;;;;;5060628;28;20433;-75
2022/11/29 06:27:03;;;;;;;2.30;2.10;;;5.50;99.90;;;;;;5036698;28;21452;-73
2022/11/29 06:29:36;;;;;;;3.55;2.25;;;5.50;99.90;;;;;;5055704;28;20441;-73
2022/11/29 06:32:40;;;;;;;1.73;1.63;;;5.40;99.90;;;;;;5063213;28;20803;-73
2022/11/29 06:35:37;;;;;;;3.33;2.10;;;5.40;99.90;;;;;;5053643;28;20432;-73
2022/11/29 06:38:27;;;;;;;3.90;2.28;;;5.40;99.90;;;;;;5054585;28;20512;-72
2022/11/29 06:40:58;;;;;;;1.50;1.40;;;5.50;99.90;;;;;;5051874;28;20429;-73
2022/11/29 06:43:28;;;;;;;1.85;1.75;;;5.50;99.90;;;;;;5045265;28;20427;-72
2022/11/29 06:46:11;;;;;;;2.42;2.20;;;5.50;99.90;;;;;;5046907;28;20913;-73
2022/11/29 06:48:44;;;;;;;1.77;1.67;;;5.50;99.90;;;;;;5041756;28;20433;-72
2022/11/29 06:51:37;;;;;;;3.20;2.13;;;5.50;99.90;;;;;;5047009;28;20437;-72
2022/11/29 06:54:32;;;;;;;4.03;1.92;;;5.50;99.90;;;;;;5047138;28;20431;-72
2022/11/29 06:57:34;;;;;;;1.55;1.45;;;5.50;99.90;;;;;;5031844;28;20437;-72
2022/11/29 07:00:15;;;;;;;2.65;2.35;;;5.50;99.90;;;;;;5058079;28;20437;-72
2022/11/29 07:02:50;;;;;;;1.67;1.58;;;5.50;99.90;;;;;;5048350;28;20526;-72
2022/11/29 07:05:30;;;;;;;2.75;1.92;;;5.50;99.90;;;;;;5063058;28;20431;-73
2022/11/29 07:08:03;;;;;;;2.05;1.90;;;5.50;99.90;;;;;;5059997;28;20428;-73
2022/11/29 07:10:32;;;;;;;3.05;2.30;;;5.50;99.90;;;;;;5048349;28;20433;-72
2022/11/29 07:12:59;;;;;;;2.35;1.48;;;5.50;99.90;;;;;;5036097;28;20443;-72
2022/11/29 07:15:27;;;;;;;3.08;1.98;;;5.50;99.90;;;;;;5040087;28;20522;-72
2022/11/29 07:18:12;;;;;;;4.68;2.20;;;5.60;99.90;;;;;;5043857;28;20475;-73
2022/11/29 07:21:01;;;;;;;6.05;1.75;;;5.60;99.90;;;;;;5047937;28;20437;-73
2022/11/29 07:23:42;;;;;;;3.03;1.63;;;5.60;99.90;;;;;;5059443;28;20460;-73
2022/11/29 07:26:50;;;;;;;3.03;2.30;;;5.60;99.90;;;;;;5033036;28;20435;-73
2022/11/29 07:29:30;;;;;;;2.25;2.05;;;5.60;99.90;;;;;;5026765;28;20466;-73
2022/11/29 07:32:22;;;;;;;2.67;2.47;;;5.60;99.90;;;;;;5035181;28;20440;-73
2022/11/29 07:34:52;;;;;;;2.88;1.95;;;5.60;99.90;;;;;;5055695;28;20417;-73
2022/11/29 07:37:53;;;;;;;1.88;1.77;;;5.60;99.90;;;;;;5051175;28;20965;-73
2022/11/29 07:40:25;;;;;;;2.50;2.08;;;5.70;99.90;;;;;;5050327;28;20459;-73
2022/11/29 07:43:17;;;;;;;2.50;1.80;;;5.70;99.90;;;;;;5061756;28;20455;-73
2022/11/29 07:45:44;;;;;;;2.55;1.70;;;5.70;99.90;;;;;;5051741;28;20423;-73
2022/11/29 07:48:12;;;;;;;4.73;2.37;;;5.70;99.90;;;;;;5061121;28;20431;-73
2022/11/29 07:50:42;;;;;;;2.58;1.95;;;5.70;99.90;;;;;;5057948;28;20489;-73
2022/11/29 07:53:20;;;;;;;2.37;2.17;;;5.70;99.90;;;;;;5054162;28;20429;-73
2022/11/29 07:55:48;;;;;;;2.30;2.10;;;5.80;99.90;;;;;;5045554;28;20442;-73
2022/11/29 07:58:16;;;;;;;3.08;1.73;;;5.80;99.90;;;;;;5056035;28;20434;-73
2022/11/29 08:00:44;;;;;;;4.07;2.30;;;5.90;99.90;;;;;;5053310;28;20499;-73
2022/11/29 08:03:11;;;;;;;4.03;2.70;;;5.90;99.90;;;;;;5051614;28;20516;-73
2022/11/29 08:05:39;;;;;;;3.83;1.73;;;5.90;99.90;;;;;;5032153;28;20437;-73
2022/11/29 08:08:06;;;;;;;3.28;2.50;;;5.90;99.90;;;;;;5043493;28;20933;-73
2022/11/29 08:10:34;;;;;;;3.10;2.38;;;5.90;99.90;;;;;;5042015;28;20433;-73
2022/11/29 08:13:01;;;;;;;3.27;2.43;;;6.00;99.90;;;;;;5045325;28;20836;-73
2022/11/29 08:15:27;;;;;;;3.13;2.53;;;6.00;99.90;;;;;;5063929;28;20430;-73
2022/11/29 08:17:54;;;;;;;2.40;1.77;;;6.00;99.90;;;;;;5033890;28;20429;-73
2022/11/29 08:20:21;;;;;;;3.78;2.25;;;6.00;99.90;;;;;;5052956;28;20429;-73
2022/11/29 08:22:56;;;;;;;7.20;3.38;;;6.00;99.90;;;;;;5050956;28;20438;-73
2022/11/29 08:25:23;;;;;;;3.45;2.97;;;6.00;99.90;;;;;;5052097;28;20459;-73
2022/11/29 08:27:51;;;;;;;3.78;2.67;;;6.00;99.90;;;;;;5033269;28;20468;-72
2022/11/29 08:30:21;;;;;;;4.80;2.40;;;6.10;99.90;;;;;;5046408;28;20535;-73
2022/11/29 08:32:49;;;;;;;6.10;2.63;;;6.10;99.90;;;;;;5053459;28;20437;-73
2022/11/29 08:35:22;;;;;;;3.00;2.03;;;6.20;99.90;;;;;;5032731;28;20772;-73
2022/11/29 08:37:49;;;;;;;3.95;2.85;;;6.30;99.90;;;;;;5051885;28;20424;-73
2022/11/29 08:40:16;;;;;;;5.00;3.47;;;6.30;99.90;;;;;;5059517;28;20449;-73
2022/11/29 08:42:43;;;;;;;3.30;2.42;;;6.40;99.90;;;;;;5036168;28;20431;-73
2022/11/29 08:45:10;;;;;;;5.80;4.07;;;6.40;99.90;;;;;;5034615;28;20474;-72
2022/11/29 08:47:39;;;;;;;5.57;2.50;;;6.40;99.90;;;;;;5058645;28;20563;-72
2022/11/29 08:50:11;;;;;;;3.20;2.35;;;6.40;99.90;;;;;;5063461;28;20800;-72
2022/11/29 08:55:38;;;;;;;4.07;3.08;;;6.40;99.90;;;;;;5032983;28;20437;-72
2022/11/29 08:58:07;;;;;;;5.57;2.70;;;6.40;99.90;;;;;;5057361;28;20434;-72
2022/11/29 09:00:38;;;;;;;3.78;2.40;;;6.50;99.90;;;;;;5063781;28;20445;-72
2022/11/29 09:05:53;;;;;;;4.28;3.83;;;6.50;99.90;;;;;;5048098;28;20975;-72
2022/11/29 09:08:20;;;;;;;3.97;3.47;;;6.50;99.90;;;;;;5041018;28;20431;-73
2022/11/29 09:10:47;;;;;;;6.72;4.07;;;6.40;99.90;;;;;;5031648;28;20439;-72
2022/11/29 09:13:14;;;;;;;5.93;2.92;;;6.40;99.90;;;;;;5045861;28;20973;-72
2022/11/29 09:15:42;;;;;;;4.23;2.20;;;6.40;99.90;;;;;;5046425;28;20458;-72
2022/11/29 09:18:09;;;;;;;3.80;2.83;;;6.40;99.90;;;;;;5043206;28;20916;-72
2022/11/29 09:20:36;;;;;;;7.90;4.03;;;6.40;99.90;;;;;;5037836;28;20427;-72
2022/11/29 09:23:03;;;;;;;4.90;3.17;;;6.40;99.90;;;;;;5037186;28;20449;-72
2022/11/29 09:25:30;;;;;;;2.30;2.15;;;6.40;99.90;;;;;;5046558;28;20494;-72
2022/11/29 09:28:01;;;;;;;4.00;2.60;;;6.40;99.90;;;;;;5031245;28;20489;-72
2022/11/29 09:30:32;;;;;;;2.42;2.22;;;6.50;99.90;;;;;;5052696;28;20436;-72
2022/11/29 09:33:03;;;;;;;4.07;3.40;;;6.60;99.90;;;;;;5062974;28;20912;-72
2022/11/29 09:35:31;;;;;;;4.50;2.70;;;6.60;99.90;;;;;;5051408;28;20431;-72
2022/11/29 09:37:57;;;;;;;3.03;2.67;;;6.70;99.90;;;;;;5054687;28;20902;-73
2022/11/29 09:40:37;;;;;;;4.07;3.00;;;6.80;99.90;;;;;;5053375;28;20429;-73
2022/11/29 09:43:24;;;;;;;2.40;1.88;;;6.80;99.90;;;;;;5057768;28;21146;-74
2022/11/29 09:46:04;;;;;;;3.25;2.80;;;6.80;99.90;;;;;;5044856;28;20438;-74
2022/11/29 09:48:56;;;;;;;2.70;2.50;;;6.90;99.90;;;;;;5042327;28;20425;-73
2022/11/29 09:51:58;;;;;;;7.77;2.77;;;6.90;99.90;;;;;;5059401;28;20456;-74
2022/11/29 09:54:57;;;;;;;3.67;3.13;;;7.00;99.90;;;;;;5052379;28;20432;-74
2022/11/29 09:57:25;;;;;;;4.13;2.73;;;7.00;99.90;;;;;;5052284;28;20819;-74
2022/11/29 10:00:01;;;;;;;4.55;2.65;;;7.00;99.90;;;;;;5066070;28;20506;-74
2022/11/29 10:02:55;;;;;;;5.20;2.17;;;7.10;99.90;;;;;;5047350;28;20778;-74
2022/11/29 10:05:43;;;;;;;2.40;1.90;;;7.20;99.90;;;;;;5038597;28;20444;-74
2022/11/29 10:08:37;;;;;;;3.75;1.92;;;7.20;99.90;;;;;;5060574;28;20510;-73
2022/11/29 10:11:27;;;;;;;3.63;2.53;;;7.20;99.90;;;;;;5059378;28;20923;-74
2022/11/29 10:14:09;;;;;;;2.80;2.60;;;7.20;99.90;;;;;;5067466;28;20449;-71
2022/11/29 10:16:51;;;;;;;2.40;2.20;;;7.30;99.90;;;;;;5060434;28;20427;-74
2022/11/29 10:19:24;;;;;;;3.97;2.63;;;7.30;99.90;;;;;;5051440;28;20467;-73
2022/11/29 10:22:20;;;;;;;2.40;2.20;;;7.20;99.90;;;;;;5052600;28;20431;-73
2022/11/29 10:24:51;;;;;;;5.45;2.40;;;7.30;99.90;;;;;;5051825;28;20424;-73
2022/11/29 10:27:22;;;;;;;2.47;2.13;;;7.30;99.90;;;;;;5055821;28;20432;-72
2022/11/29 10:29:52;;;;;;;2.78;2.53;;;7.20;99.90;;;;;;5064403;28;20490;-72
2022/11/29 10:32:21;;;;;;;2.92;2.30;;;7.20;99.90;;;;;;5037908;28;20441;-72
2022/11/29 10:34:50;;;;;;;3.27;1.90;;;7.30;99.90;;;;;;5055777;28;20841;-72
2022/11/29 10:37:19;;;;;;;2.65;2.45;;;7.30;99.90;;;;;;5063737;28;20477;-73
2022/11/29 10:39:48;;;;;;;2.63;2.22;;;7.30;99.90;;;;;;5053427;28;20454;-72
2022/11/29 10:45:22;;;;;;;2.45;2.25;;;7.40;99.90;;;;;;5058321;28;20461;-72
2022/11/29 10:47:51;;;;;;;2.22;2.10;;;7.40;99.90;;;;;;5058154;28;20439;-72
2022/11/29 10:50:38;;;;;;;2.55;2.35;;;7.40;99.90;;;;;;5044332;28;20603;-72
2022/11/29 10:53:08;;;;;;;3.17;2.45;;;7.40;99.90;;;;;;5038563;28;20433;-72
2022/11/29 10:56:01;;;;;;;6.40;2.85;;;7.30;99.90;;;;;;5029895;28;20430;-72
2022/11/29 10:58:29;;;;;;;2.72;2.45;;;7.30;99.90;;;;;;5050944;28;20438;-72
2022/11/29 11:01:06;;;;;;;4.38;2.67;;;7.20;99.90;;;;;;5059560;28;20928;-72
2022/11/29 11:03:38;;;;;;;2.90;2.60;;;7.30;99.90;;;;;;5058819;28;20431;-72
2022/11/29 11:06:05;;;;;;;3.90;2.90;;;7.30;99.90;;;;;;5059439;28;20962;-72
2022/11/29 11:08:33;;;;;;;2.70;2.30;;;7.30;99.90;;;;;;5049436;28;20432;-72
2022/11/29 11:11:01;;;;;;;4.25;2.33;;;7.40;99.90;;;;;;5031576;28;20435;-72
2022/11/29 11:13:30;;;;;;;3.05;2.03;;;7.50;99.90;;;;;;5030928;28;20431;-72
2022/11/29 11:16:14;;;;;;;2.03;1.83;;;7.50;99.90;;;;;;5049346;28;20433;-72
2022/11/29 11:18:42;;;;;;;3.57;2.60;;;7.50;99.90;;;;;;5043335;28;20889;-72
2022/11/29 11:21:11;;;;;;;2.58;2.38;;;7.60;99.90;;;;;;5046481;28;20946;-72
2022/11/29 11:23:51;;;;;;;2.22;2.00;;;7.60;99.90;;;;;;5048989;28;20439;-72
2022/11/29 11:26:19;;;;;;;3.30;2.38;;;7.70;99.90;;;;;;5055223;28;20436;-72
2022/11/29 11:28:45;;;;;;;3.38;2.40;;;7.70;99.90;;;;;;5057200;28;20952;-72
2022/11/29 11:31:12;;;;;;;1.88;1.77;;;7.70;99.90;;;;;;5041534;28;20506;-72
2022/11/29 11:33:41;;;;;;;1.70;1.60;;;7.70;99.90;;;;;;5048258;28;20439;-72
2022/11/29 11:36:21;;;;;;;1.85;1.75;;;7.60;99.90;;;;;;5038974;28;20502;-71
2022/11/29 11:38:56;;;;;;;2.85;2.65;;;7.60;99.90;;;;;;5049539;28;20459;-71
2022/11/29 11:44:39;;;;;;;2.30;2.03;;;7.50;99.90;;;;;;5055805;28;20819;-71
2022/11/29 11:47:25;;;;;;;3.37;2.23;;;7.50;99.90;;;;;;5053349;28;20556;-71
2022/11/29 11:50:02;;;;;;;3.03;2.65;;;7.50;99.90;;;;;;5051419;28;20436;-71
2022/11/29 11:52:37;;;;;;;4.60;3.05;;;7.50;99.90;;;;;;5046988;28;20557;-71
2022/11/29 11:55:21;;;;;;;2.47;2.10;;;7.50;99.90;;;;;;5072130;28;20443;-71
2022/11/29 11:58:11;;;;;;;2.45;2.05;;;7.40;99.90;;;;;;5066757;28;20434;-71
2022/11/29 12:00:40;;;;;;;3.65;2.20;;;7.50;99.90;;;;;;5046881;28;20894;-71
2022/11/29 12:03:49;;;;;;;2.75;1.63;;;7.60;99.90;;;;;;5055288;28;20410;-71
2022/11/29 12:06:22;;;;;;;3.00;2.38;;;7.60;99.90;;;;;;5032865;28;20432;-71
2022/11/29 12:09:17;;;;;;;2.92;2.38;;;7.70;99.90;;;;;;5050247;28;20884;-71
2022/11/29 12:11:59;;;;;;;2.20;2.10;;;7.80;99.90;;;;;;5033015;28;20425;-73
2022/11/29 12:14:34;;;;;;;3.60;2.33;;;7.80;99.90;;;;;;5051230;28;20425;-71
2022/11/29 12:17:14;;;;;;;2.20;1.92;;;7.80;99.90;;;;;;5041431;28;20445;-71
2022/11/29 12:20:09;;;;;;;1.77;1.67;;;7.70;99.90;;;;;;5061573;28;20771;-71
2022/11/29 12:23:03;;;;;;;2.42;1.70;;;7.70;99.90;;;;;;5056107;28;20998;-73
2022/11/29 12:25:34;;;;;;;1.90;1.80;;;7.80;99.90;;;;;;5049508;28;20435;-74
2022/11/29 12:28:02;;;;;;;2.00;1.90;;;7.90;99.90;;;;;;5051115;28;20440;-71
2022/11/29 12:30:30;;;;;;;1.90;1.80;;;7.90;99.90;;;;;;5049715;28;20433;-71
2022/11/29 12:33:36;;;;;;;1.63;1.45;;;7.90;99.90;;;;;;5055398;28;20433;-74
2022/11/29 12:36:17;;;;;;;2.20;2.00;;;8.00;99.90;;;;;;5054306;28;20861;-73
2022/11/29 12:39:05;;;;;;;1.67;1.58;;;8.10;99.90;;;;;;5050511;28;20461;-72
2022/11/29 12:41:50;;;;;;;2.20;1.67;;;8.30;99.90;;;;;;5060860;28;20431;-71
2022/11/29 12:44:29;;;;;;;2.47;1.90;;;8.30;99.90;;;;;;5046393;28;20431;-71
2022/11/29 12:47:38;;;;;;;2.40;2.20;;;8.30;99.90;;;;;;5053413;28;20425;-71
2022/11/29 12:50:14;;;;;;;2.33;1.73;;;8.20;99.90;;;;;;5059910;28;20496;-72
2022/11/29 12:53:03;;;;;;;2.15;1.95;;;8.30;99.90;;;;;;5050230;28;20430;-72
2022/11/29 12:56:00;;;;;;;3.42;1.75;;;8.30;99.90;;;;;;5050010;28;20440;-72
2022/11/29 12:58:59;;;;;;;3.25;2.40;;;8.40;99.90;;;;;;5041484;28;20435;-72
2022/11/29 13:01:42;;;;;;;2.60;2.30;;;8.30;99.90;;;;;;5032484;28;20462;-72
2022/11/29 13:04:14;;;;;;;4.88;2.55;;;8.30;99.90;;;;;;5030189;28;20431;-72
2022/11/29 13:07:09;;;;;;;4.20;2.40;;;8.30;99.90;;;;;;5031652;28;21007;-72
2022/11/29 13:09:51;;;;;;;4.15;3.22;;;8.20;99.90;;;;;;5032555;28;20494;-72
2022/11/29 13:12:40;;;;;;;2.70;2.50;;;8.20;99.90;;;;;;5051419;28;20436;-72
2022/11/29 13:15:11;;;;;;;2.85;2.65;;;8.10;99.90;;;;;;5043725;28;20427;-72
2022/11/29 13:17:59;;;;;;;2.30;1.98;;;7.90;99.90;;;;;;5031151;28;20442;-72
2022/11/29 13:20:29;;;;;;;3.53;2.38;;;7.90;99.90;;;;;;5041496;28;20450;-72
2022/11/29 13:22:58;;;;;;;3.05;2.72;;;8.00;99.90;;;;;;5064226;28;20436;-72
2022/11/29 13:25:42;;;;;;;3.63;2.47;;;8.00;99.90;;;;;;5060741;28;20913;-72
2022/11/29 13:28:30;;;;;;;3.80;1.98;;;8.00;99.90;;;;;;5036079;28;20456;-72
2022/11/29 13:31:04;;;;;;;2.38;2.28;;;8.00;99.90;;;;;;5050959;28;20912;-72
2022/11/29 13:33:50;;;;;;;2.60;2.40;;;8.00;99.90;;;;;;5056334;28;20463;-72
2022/11/29 13:36:40;;;;;;;2.72;2.38;;;8.00;99.90;;;;;;5049891;28;20500;-71
2022/11/29 13:39:29;;;;;;;4.70;3.80;;;8.00;99.90;;;;;;5044950;28;20432;-71
2022/11/29 13:42:02;;;;;;;3.38;3.05;;;7.90;99.90;;;;;;5063281;28;20481;-71
2022/11/29 13:44:39;;;;;;;3.35;2.55;;;8.00;99.90;;;;;;5052039;28;21135;-71
2022/11/29 13:47:10;;;;;;;3.70;2.42;;;8.10;99.90;;;;;;5058554;28;20904;-71
2022/11/29 13:49:51;;;;;;;5.70;2.80;;;8.00;99.90;;;;;;5044289;28;20427;-71
2022/11/29 13:52:36;;;;;;;3.88;2.90;;;8.00;99.90;;;;;;5030904;28;20419;-71
2022/11/29 13:55:17;;;;;;;2.70;2.50;;;7.90;99.90;;;;;;5038726;28;20442;-71
2022/11/29 13:57:54;;;;;;;3.35;2.88;;;8.00;99.90;;;;;;5047807;28;20431;-71
2022/11/29 14:00:44;;;;;;;2.80;2.60;;;8.00;99.90;;;;;;5054451;28;20504;-71
2022/11/29 14:03:22;;;;;;;1.92;1.83;;;8.10;99.90;;;;;;5037014;28;20431;-71
2022/11/29 14:06:12;;;;;;;5.72;3.20;;;8.20;99.90;;;;;;5049119;28;20437;-71
2022/11/29 14:08:44;;;;;;;3.00;2.70;;;8.30;99.90;;;;;;5045455;28;20433;-72
2022/11/29 14:12:06;;;;;;;2.78;2.58;;;8.40;99.90;;;;;;5045668;28;20475;-72